createdAt,value
2018-12-22T00:00:09.855Z,1.10
2018-12-22T00:02:37.483Z,1.23
2018-12-22T00:05:05.760Z,1.13
2018-12-22T00:07:33.301Z,1.13
2018-12-22T00:10:00.837Z,1.50
2018-12-22T00:12:28.393Z,1.00
2018-12-22T00:14:56.135Z,1.43
2018-12-22T00:17:23.759Z,1.20
2018-12-22T00:19:52.073Z,1.60
2018-12-22T00:22:19.636Z,1.10
2018-12-22T00:24:47.193Z,1.47
2018-12-22T00:27:14.790Z,1.20
2018-12-22T00:29:42.296Z,1.13
2018-12-22T00:32:09.829Z,1.73
2018-12-22T00:34:37.485Z,1.10
2018-12-22T00:37:05.019Z,1.10
2018-12-22T00:39:32.542Z,1.30
2018-12-22T00:42:00.089Z,2.53
2018-12-22T00:44:27.606Z,2.57
2018-12-22T00:46:55.165Z,1.40
2018-12-22T00:49:22.694Z,1.30
2018-12-22T00:51:50.224Z,1.40
2018-12-22T00:54:18.088Z,1.50
2018-12-22T00:56:45.819Z,1.40
2018-12-22T00:59:13.349Z,2.73
2018-12-22T01:01:41.538Z,1.17
2018-12-22T01:04:09.087Z,0.97
2018-12-22T01:06:37.085Z,1.60
2018-12-22T01:09:06.283Z,1.20
2018-12-22T01:11:34.122Z,0.93
2018-12-22T01:14:01.773Z,1.10
2018-12-22T01:16:29.309Z,1.10
2018-12-22T01:18:56.854Z,1.10
2018-12-22T01:21:24.370Z,1.33
2018-12-22T01:23:51.909Z,1.10
2018-12-22T01:26:19.433Z,1.20
2018-12-22T01:28:46.962Z,1.27
2018-12-22T01:31:14.513Z,1.03
2018-12-22T01:33:42.054Z,1.20
2018-12-22T01:36:09.573Z,1.43
2018-12-22T01:38:37.125Z,2.60
2018-12-22T01:41:04.680Z,1.10
2018-12-22T01:43:32.471Z,1.10
2018-12-22T01:46:00.017Z,1.13
2018-12-22T01:48:27.545Z,1.00
2018-12-22T01:50:55.102Z,1.70
2018-12-22T01:53:22.632Z,1.63
2018-12-22T01:55:50.172Z,1.10
2018-12-22T01:58:17.712Z,1.50
2018-12-22T02:00:45.224Z,1.03
2018-12-22T02:03:12.782Z,1.03
2018-12-22T02:05:40.331Z,1.30
2018-12-22T02:08:08.448Z,1.10
2018-12-22T02:10:36.001Z,1.17
2018-12-22T02:13:03.519Z,1.10
2018-12-22T02:15:31.062Z,1.20
2018-12-22T02:17:58.843Z,1.30
2018-12-22T02:20:26.394Z,1.10
2018-12-22T02:22:54.334Z,2.00
2018-12-22T02:25:21.993Z,1.20
2018-12-22T02:27:49.552Z,2.10
2018-12-22T02:30:17.101Z,3.97
2018-12-22T02:32:44.677Z,2.17
2018-12-22T02:35:12.278Z,1.40
2018-12-22T02:37:39.822Z,2.03
2018-12-22T02:40:08.762Z,3.30
2018-12-22T02:42:36.283Z,1.47
2018-12-22T02:45:05.194Z,1.47
2018-12-22T02:47:32.706Z,1.53
2018-12-22T02:50:00.260Z,1.13
2018-12-22T02:52:27.845Z,1.20
2018-12-22T02:54:55.402Z,1.53
2018-12-22T02:57:22.917Z,2.93
2018-12-22T02:59:50.754Z,1.60
2018-12-22T03:02:18.258Z,1.70
2018-12-22T03:04:45.813Z,1.30
2018-12-22T03:07:13.326Z,1.17
2018-12-22T03:09:40.855Z,2.47
2018-12-22T03:12:08.380Z,1.50
2018-12-22T03:14:35.939Z,1.40
2018-12-22T03:17:03.514Z,1.37
2018-12-22T03:19:31.070Z,2.03
2018-12-22T03:21:58.685Z,1.17
2018-12-22T03:24:26.202Z,1.50
2018-12-22T03:26:53.777Z,1.30
2018-12-22T03:29:21.292Z,1.10
2018-12-22T03:31:48.838Z,1.77
2018-12-22T03:34:16.369Z,1.53
2018-12-22T03:36:43.939Z,1.50
2018-12-22T03:39:11.611Z,1.40
2018-12-22T03:41:39.159Z,1.30
2018-12-22T03:44:06.735Z,1.20
2018-12-22T03:46:34.294Z,1.77
2018-12-22T03:49:01.838Z,1.57
2018-12-22T03:51:29.603Z,1.13
2018-12-22T03:53:57.776Z,1.20
2018-12-22T03:56:25.339Z,2.77
2018-12-22T03:58:52.862Z,1.57
2018-12-22T04:01:20.374Z,1.20
2018-12-22T04:03:47.948Z,1.83
2018-12-22T04:06:15.680Z,1.23
2018-12-22T04:08:43.234Z,2.77
2018-12-22T04:11:10.792Z,1.07
2018-12-22T04:13:38.359Z,0.90
2018-12-22T04:16:06.130Z,0.83
2018-12-22T04:18:33.703Z,0.67
2018-12-22T04:21:01.507Z,1.10
2018-12-22T04:23:29.065Z,1.17
2018-12-22T04:25:56.585Z,1.00
2018-12-22T04:28:24.770Z,1.43
2018-12-22T04:30:52.303Z,1.33
2018-12-22T04:33:19.831Z,1.20
2018-12-22T04:35:47.401Z,1.23
2018-12-22T04:38:14.958Z,1.23
2018-12-22T04:40:42.518Z,1.30
2018-12-22T04:43:10.029Z,1.37
2018-12-22T04:45:37.577Z,2.90
2018-12-22T04:48:05.086Z,1.30
2018-12-22T04:50:32.649Z,1.10
2018-12-22T04:53:00.349Z,0.90
2018-12-22T04:55:28.115Z,1.00
2018-12-22T04:57:55.685Z,1.03
2018-12-22T05:00:23.212Z,0.90
2018-12-22T05:02:50.788Z,0.80
2018-12-22T05:05:18.334Z,2.17
2018-12-22T05:07:45.978Z,1.00
2018-12-22T05:10:13.493Z,0.83
2018-12-22T05:12:41.062Z,1.00
2018-12-22T05:15:08.699Z,0.80
2018-12-22T05:17:36.213Z,1.00
2018-12-22T05:20:05.193Z,0.60
2018-12-22T05:22:32.821Z,0.80
2018-12-22T05:25:00.493Z,0.90
2018-12-22T05:27:28.028Z,0.90
2018-12-22T05:29:55.765Z,1.23
2018-12-22T05:32:23.356Z,0.80
2018-12-22T05:34:50.912Z,2.00
2018-12-22T05:37:18.458Z,2.30
2018-12-22T05:39:45.997Z,1.00
2018-12-22T05:42:13.517Z,1.00
2018-12-22T05:44:41.052Z,1.00
2018-12-22T05:47:08.607Z,1.10
2018-12-22T05:49:36.768Z,0.90
2018-12-22T05:52:04.310Z,0.90
2018-12-22T05:54:31.820Z,2.20
2018-12-22T05:56:59.429Z,0.90
2018-12-22T05:59:26.963Z,1.40
2018-12-22T06:01:54.672Z,0.80
2018-12-22T06:04:22.232Z,0.93
2018-12-22T06:06:49.741Z,4.37
2018-12-22T06:09:17.289Z,2.90
2018-12-22T06:11:44.841Z,0.80
2018-12-22T06:14:12.370Z,0.90
2018-12-22T06:16:39.934Z,1.00
2018-12-22T06:19:07.442Z,1.00
2018-12-22T06:21:35.000Z,1.00
2018-12-22T06:24:02.531Z,1.03
2018-12-22T06:26:30.117Z,2.93
2018-12-22T06:28:57.698Z,0.90
2018-12-22T06:31:25.277Z,1.10
2018-12-22T06:33:52.849Z,2.10
2018-12-22T06:36:20.381Z,0.90
2018-12-22T06:38:47.929Z,1.37
2018-12-22T06:41:15.443Z,4.43
2018-12-22T06:43:44.013Z,1.87
2018-12-22T06:46:11.550Z,1.23
2018-12-22T06:48:39.432Z,1.10
2018-12-22T06:51:06.985Z,1.00
2018-12-22T06:53:34.509Z,1.07
2018-12-22T06:56:02.106Z,1.27
2018-12-22T06:58:29.701Z,1.87
2018-12-22T07:00:57.542Z,2.27
2018-12-22T07:03:25.153Z,1.20
2018-12-22T07:05:52.865Z,1.30
2018-12-22T07:08:20.435Z,2.30
2018-12-22T07:10:48.201Z,1.57
2018-12-22T07:13:15.749Z,1.53
2018-12-22T07:15:43.277Z,1.43
2018-12-22T07:18:10.827Z,1.40
2018-12-22T07:20:38.375Z,2.13
2018-12-22T07:23:05.899Z,3.07
2018-12-22T07:25:33.561Z,2.20
2018-12-22T07:28:01.516Z,1.17
2018-12-22T07:30:29.032Z,1.70
2018-12-22T07:32:57.427Z,2.13
2018-12-22T07:35:25.190Z,1.30
2018-12-22T07:37:52.745Z,2.13
2018-12-22T07:40:20.367Z,3.40
2018-12-22T07:42:47.930Z,2.97
2018-12-22T07:45:15.441Z,4.67
2018-12-22T07:47:43.021Z,2.33
2018-12-22T07:50:10.546Z,2.77
2018-12-22T07:52:38.126Z,1.43
2018-12-22T07:55:06.621Z,3.27
2018-12-22T07:57:34.249Z,5.00
2018-12-22T08:00:01.799Z,2.30
2018-12-22T08:02:29.319Z,3.20
2018-12-22T08:04:56.900Z,4.03
2018-12-22T08:07:24.417Z,1.30
2018-12-22T08:09:51.966Z,1.60
2018-12-22T08:12:19.535Z,1.97
2018-12-22T08:14:47.151Z,1.67
2018-12-22T08:17:14.695Z,2.20
2018-12-22T08:19:42.385Z,1.43
2018-12-22T08:22:10.658Z,3.30
2018-12-22T08:24:38.177Z,2.20
2018-12-22T08:27:05.710Z,2.03
2018-12-22T08:29:33.314Z,1.80
2018-12-22T08:32:00.845Z,1.53
2018-12-22T08:34:28.348Z,1.20
2018-12-22T08:36:55.893Z,1.30
2018-12-22T08:39:23.512Z,2.10
2018-12-22T08:41:51.080Z,4.13
2018-12-22T08:44:18.607Z,2.03
2018-12-22T08:46:46.134Z,1.43
2018-12-22T08:49:13.797Z,2.03
2018-12-22T08:51:41.330Z,2.13
2018-12-22T08:54:09.038Z,2.20
2018-12-22T08:56:36.565Z,3.20
2018-12-22T08:59:04.125Z,4.20
2018-12-22T09:01:31.697Z,2.10
2018-12-22T09:03:59.258Z,1.70
2018-12-22T09:06:26.920Z,3.27
2018-12-22T09:08:54.518Z,5.00
2018-12-22T09:11:22.119Z,1.60
2018-12-22T09:13:49.867Z,1.80
2018-12-22T09:16:17.631Z,2.00
2018-12-22T09:18:45.202Z,4.10
2018-12-22T09:21:12.722Z,3.43
2018-12-22T09:23:40.256Z,4.17
2018-12-22T09:26:08.605Z,4.43
2018-12-22T09:28:36.675Z,4.80
2018-12-22T09:31:04.752Z,1.40
2018-12-22T09:33:32.623Z,2.30
2018-12-22T09:36:00.145Z,2.33
2018-12-22T09:38:27.708Z,1.47
2018-12-22T09:40:55.269Z,3.70
2018-12-22T09:43:23.301Z,2.93
2018-12-22T09:45:50.862Z,2.03
2018-12-22T09:48:18.486Z,3.03
2018-12-22T09:50:46.035Z,2.50
2018-12-22T09:53:13.571Z,1.60
2018-12-22T09:55:41.340Z,6.23
2018-12-22T09:58:08.901Z,2.20
2018-12-22T10:00:36.473Z,1.53
2018-12-22T10:03:04.058Z,3.03
2018-12-22T10:05:33.609Z,3.83
2018-12-22T10:08:01.131Z,2.17
2018-12-22T10:10:29.670Z,1.97
2018-12-22T10:12:57.654Z,2.27
2018-12-22T10:15:25.216Z,2.87
2018-12-22T10:17:52.980Z,5.07
2018-12-22T10:20:20.554Z,2.77
2018-12-22T10:22:48.134Z,4.23
2018-12-22T10:25:15.679Z,1.63
2018-12-22T10:27:43.239Z,2.30
2018-12-22T10:30:12.117Z,6.13
2018-12-22T10:32:39.675Z,1.60
2018-12-22T10:35:11.550Z,2.63
2018-12-22T10:37:39.346Z,3.33
2018-12-22T10:40:08.653Z,3.50
2018-12-22T10:42:36.564Z,3.07
2018-12-22T10:45:06.739Z,4.77
2018-12-22T10:47:34.329Z,2.67
2018-12-22T10:50:01.899Z,3.77
2018-12-22T10:52:29.434Z,2.80
2018-12-22T10:54:56.941Z,3.60
2018-12-22T10:57:24.504Z,5.13
2018-12-22T10:59:52.064Z,6.30
2018-12-22T11:02:19.662Z,7.47
2018-12-22T11:04:47.185Z,5.87
2018-12-22T11:07:14.735Z,5.07
2018-12-22T11:09:44.233Z,6.87
2018-12-22T11:12:11.816Z,5.97
2018-12-22T11:14:39.458Z,4.63
2018-12-22T11:17:06.974Z,3.00
2018-12-22T11:19:34.667Z,4.70
2018-12-22T11:22:02.188Z,6.70
2018-12-22T11:24:29.820Z,5.00
2018-12-22T11:26:57.367Z,6.30
2018-12-22T11:29:24.949Z,3.50
2018-12-22T11:31:52.690Z,4.20
2018-12-22T11:34:20.468Z,4.73
2018-12-22T11:36:47.977Z,7.63
2018-12-22T11:39:15.539Z,8.17
2018-12-22T11:41:43.100Z,5.77
2018-12-22T11:44:10.713Z,6.07
2018-12-22T11:46:38.665Z,5.97
2018-12-22T11:49:06.962Z,6.30
2018-12-22T11:51:34.788Z,10.60
2018-12-22T11:54:02.297Z,5.87
2018-12-22T11:56:29.873Z,5.80
2018-12-22T11:58:57.411Z,6.07
2018-12-22T12:01:24.930Z,7.33
2018-12-22T12:03:52.484Z,8.60
2018-12-22T12:06:20.028Z,9.23
2018-12-22T12:08:47.704Z,3.60
2018-12-22T12:11:15.219Z,3.43
2018-12-22T12:13:42.777Z,6.17
2018-12-22T12:16:12.869Z,5.03
2018-12-22T12:18:50.872Z,5.10
2018-12-22T12:21:18.397Z,2.87
2018-12-22T12:23:45.974Z,4.13
2018-12-22T12:26:13.630Z,2.70
2018-12-22T12:28:41.361Z,3.27
2018-12-22T12:31:09.277Z,2.07
2018-12-22T12:33:36.823Z,3.80
2018-12-22T12:36:04.416Z,2.60
2018-12-22T12:38:32.150Z,5.03
2018-12-22T12:40:59.709Z,2.53
2018-12-22T12:43:27.288Z,6.53
2018-12-22T12:45:54.875Z,3.03
2018-12-22T12:48:23.881Z,3.80
2018-12-22T12:50:51.457Z,3.07
2018-12-22T12:53:19.043Z,3.70
2018-12-22T12:55:46.937Z,5.23
2018-12-22T12:58:14.582Z,2.70
2018-12-22T13:00:42.293Z,1.70
2018-12-22T13:03:09.858Z,2.93
2018-12-22T13:05:37.381Z,2.70
2018-12-22T13:08:04.923Z,4.83
2018-12-22T13:10:33.105Z,5.60
2018-12-22T13:13:15.925Z,1.83
2018-12-22T13:15:43.486Z,5.00
2018-12-22T13:18:11.104Z,3.40
2018-12-22T13:20:38.882Z,4.00
2018-12-22T13:23:06.486Z,4.90
2018-12-22T13:25:34.014Z,4.50
2018-12-22T13:28:01.629Z,6.50
2018-12-22T13:30:29.198Z,5.10
2018-12-22T13:32:57.102Z,3.57
2018-12-22T13:35:25.294Z,6.57
2018-12-22T13:37:52.811Z,4.77
2018-12-22T13:40:20.499Z,5.10
2018-12-22T13:42:48.059Z,6.83
2018-12-22T13:45:15.822Z,6.80
2018-12-22T13:47:43.730Z,7.30
2018-12-22T13:50:12.973Z,3.03
2018-12-22T13:52:40.741Z,2.13
2018-12-22T13:55:09.685Z,7.33
2018-12-22T13:57:43.269Z,12.77
2018-12-22T14:00:14.504Z,5.93
2018-12-22T14:02:42.312Z,4.83
2018-12-22T14:05:13.006Z,4.37
2018-12-22T14:07:40.574Z,5.17
2018-12-22T14:10:11.394Z,4.13
2018-12-22T14:12:38.913Z,5.53
2018-12-22T14:15:15.586Z,5.07
2018-12-22T14:17:47.160Z,3.27
2018-12-22T14:20:14.748Z,11.57
2018-12-22T14:22:43.006Z,4.60
2018-12-22T14:25:12.994Z,6.23
2018-12-22T14:27:40.508Z,5.17
2018-12-22T14:30:11.581Z,8.17
2018-12-22T14:32:39.092Z,6.53
2018-12-22T14:35:17.365Z,6.83
2018-12-22T14:37:44.879Z,2.97
2018-12-22T14:40:12.847Z,6.00
2018-12-22T14:42:40.399Z,12.33
2018-12-22T14:45:12.898Z,7.00
2018-12-22T14:47:41.007Z,7.53
2018-12-22T14:50:11.659Z,8.90
2018-12-22T14:52:40.179Z,9.13
2018-12-22T14:55:10.818Z,6.00
2018-12-22T14:57:45.553Z,7.70
2018-12-22T15:00:15.876Z,7.40
2018-12-22T15:02:43.519Z,9.27
2018-12-22T15:05:11.118Z,11.40
2018-12-22T15:07:38.691Z,10.80
2018-12-22T15:10:09.374Z,7.50
2018-12-22T15:12:37.117Z,8.23
2018-12-22T15:15:10.052Z,7.70
2018-12-22T15:17:41.270Z,7.20
2018-12-22T15:20:24.374Z,8.87
2018-12-22T15:22:51.919Z,7.17
2018-12-22T15:25:19.464Z,6.37
2018-12-22T15:27:47.005Z,5.47
2018-12-22T15:30:15.722Z,5.07
2018-12-22T15:32:44.515Z,7.17
2018-12-22T15:35:12.877Z,3.90
2018-12-22T15:37:40.385Z,4.47
2018-12-22T15:40:10.274Z,6.13
2018-12-22T15:42:38.028Z,8.57
2018-12-22T15:45:11.088Z,6.60
2018-12-22T15:47:38.657Z,6.73
2018-12-22T15:50:14.796Z,9.27
2018-12-22T15:52:42.422Z,3.47
2018-12-22T15:55:10.163Z,2.57
2018-12-22T15:57:37.739Z,4.90
2018-12-22T16:00:14.378Z,6.23
2018-12-22T16:02:41.940Z,10.43
2018-12-22T16:05:11.305Z,8.90
2018-12-22T16:07:41.624Z,7.23
2018-12-22T16:10:12.870Z,6.13
2018-12-22T16:12:40.425Z,8.80
2018-12-22T16:15:12.485Z,5.33
2018-12-22T16:17:40.045Z,5.07
2018-12-22T16:20:10.678Z,3.07
2018-12-22T16:22:40.954Z,7.00
2018-12-22T16:25:11.498Z,8.20
2018-12-22T16:27:40.453Z,6.70
2018-12-22T16:30:21.359Z,8.80
2018-12-22T16:32:49.042Z,7.67
2018-12-22T16:35:16.605Z,8.00
2018-12-22T16:37:44.375Z,6.80
2018-12-22T16:40:13.067Z,5.57
2018-12-22T16:42:40.996Z,6.53
2018-12-22T16:45:15.040Z,6.07
2018-12-22T16:47:43.323Z,5.27
2018-12-22T16:50:14.842Z,7.20
2018-12-22T16:52:42.493Z,5.20
2018-12-22T16:55:13.422Z,6.10
2018-12-22T16:57:44.438Z,4.67
2018-12-22T17:00:16.067Z,2.10
2018-12-22T17:02:45.125Z,5.20
2018-12-22T17:05:13.033Z,2.93
2018-12-22T17:07:40.892Z,2.73
2018-12-22T17:10:09.341Z,3.90
2018-12-22T17:12:36.893Z,2.27
2018-12-22T17:15:08.492Z,4.97
2018-12-22T17:17:36.054Z,4.20
2018-12-22T17:20:06.655Z,3.17
2018-12-22T17:22:34.204Z,2.90
2018-12-22T17:25:02.191Z,4.73
2018-12-22T17:27:29.885Z,4.20
2018-12-22T17:29:57.597Z,4.97
2018-12-22T17:32:25.161Z,3.50
2018-12-22T17:34:52.729Z,2.77
2018-12-22T17:37:20.246Z,3.77
2018-12-22T17:39:53.373Z,4.47
2018-12-22T17:42:17.373Z,1.70
2018-12-22T17:44:44.905Z,4.37
2018-12-22T17:47:12.630Z,3.93
2018-12-22T17:49:40.146Z,5.10
2018-12-22T17:52:07.939Z,4.33
2018-12-22T17:54:35.478Z,6.43
2018-12-22T17:57:03.182Z,8.40
2018-12-22T17:59:30.700Z,7.93
2018-12-22T18:01:58.213Z,7.17
2018-12-22T18:04:25.742Z,3.53
2018-12-22T18:06:53.289Z,3.83
2018-12-22T18:09:20.797Z,6.90
2018-12-22T18:11:48.385Z,5.77
2018-12-22T18:14:16.085Z,5.10
2018-12-22T18:16:43.651Z,6.70
2018-12-22T18:19:11.168Z,5.20
2018-12-22T18:21:38.970Z,3.47
2018-12-22T18:24:06.814Z,4.53
2018-12-22T18:26:34.325Z,6.43
2018-12-22T18:29:01.908Z,5.10
2018-12-22T18:31:29.460Z,4.60
2018-12-22T18:33:56.981Z,4.67
2018-12-22T18:36:24.545Z,5.03
2018-12-22T18:38:52.092Z,3.60
2018-12-22T18:41:19.618Z,7.17
2018-12-22T18:43:47.195Z,6.17
2018-12-22T18:46:14.772Z,5.57
2018-12-22T18:48:42.332Z,4.97
2018-12-22T18:51:10.113Z,5.90
2018-12-22T18:53:37.678Z,5.03
2018-12-22T18:56:05.217Z,4.03
2018-12-22T18:58:32.779Z,6.93
2018-12-22T19:01:00.325Z,8.53
2018-12-22T19:03:28.171Z,7.60
2018-12-22T19:05:56.279Z,6.23
2018-12-22T19:08:24.013Z,7.10
2018-12-22T19:10:51.562Z,9.73
2018-12-22T19:13:19.077Z,10.80
2018-12-22T19:15:46.601Z,8.73
2018-12-22T19:18:14.195Z,10.17
2018-12-22T19:20:42.207Z,8.27
2018-12-22T19:23:11.075Z,8.53
2018-12-22T19:25:38.650Z,7.93
2018-12-22T19:28:06.166Z,6.50
2018-12-22T19:30:33.698Z,7.57
2018-12-22T19:33:01.270Z,12.47
2018-12-22T19:35:28.785Z,8.83
2018-12-22T19:37:56.374Z,8.60
2018-12-22T19:40:24.140Z,10.00
2018-12-22T19:42:51.817Z,6.87
2018-12-22T19:45:19.996Z,9.93
2018-12-22T19:47:47.696Z,9.80
2018-12-22T19:50:15.349Z,7.83
2018-12-22T19:52:42.991Z,6.33
2018-12-22T19:55:10.542Z,6.30
2018-12-22T19:57:38.069Z,7.93
2018-12-22T20:00:06.579Z,6.50
2018-12-22T20:02:34.416Z,6.50
2018-12-22T20:05:02.333Z,4.77
2018-12-22T20:07:29.843Z,7.93
2018-12-22T20:09:57.375Z,8.17
2018-12-22T20:12:24.977Z,5.50
2018-12-22T20:14:52.541Z,6.20
2018-12-22T20:17:20.186Z,8.30
2018-12-22T20:19:47.792Z,6.53
2018-12-22T20:22:15.466Z,5.07
2018-12-22T20:24:43.051Z,6.17
2018-12-22T20:27:11.361Z,4.33
2018-12-22T20:29:38.954Z,4.00
2018-12-22T20:32:06.470Z,9.87
2018-12-22T20:34:34.048Z,8.67
2018-12-22T20:37:01.695Z,10.30
2018-12-22T20:39:29.359Z,7.03
2018-12-22T20:41:56.883Z,8.77
2018-12-22T20:44:24.853Z,5.40
2018-12-22T20:46:52.494Z,8.53
2018-12-22T20:49:20.052Z,5.53
2018-12-22T20:51:47.587Z,4.33
2018-12-22T20:54:15.160Z,8.30
2018-12-22T20:56:42.695Z,9.17
2018-12-22T20:59:10.258Z,3.47
2018-12-22T21:01:37.766Z,6.30
2018-12-22T21:04:05.288Z,5.67
2018-12-22T21:06:32.931Z,6.37
2018-12-22T21:09:00.462Z,4.30
2018-12-22T21:11:27.993Z,6.60
2018-12-22T21:13:55.623Z,8.87
2018-12-22T21:16:23.336Z,11.47
2018-12-22T21:18:50.954Z,6.87
2018-12-22T21:21:18.508Z,8.87
2018-12-22T21:23:46.014Z,4.53
2018-12-22T21:26:13.586Z,7.03
2018-12-22T21:28:41.148Z,6.03
2018-12-22T21:31:08.969Z,5.20
2018-12-22T21:33:36.483Z,8.40
2018-12-22T21:36:04.013Z,5.20
2018-12-22T21:38:32.522Z,7.67
2018-12-22T21:41:00.084Z,6.97
2018-12-22T21:43:27.854Z,10.03
2018-12-22T21:45:55.438Z,6.93
2018-12-22T21:48:24.441Z,6.60
2018-12-22T21:50:52.045Z,5.90
2018-12-22T21:53:19.636Z,8.07
2018-12-22T21:55:47.175Z,4.37
2018-12-22T21:58:14.725Z,7.37
2018-12-22T22:00:43.316Z,10.33
2018-12-22T22:03:11.302Z,9.97
2018-12-22T22:05:38.895Z,9.60
2018-12-22T22:08:06.507Z,9.13
2018-12-22T22:10:34.039Z,6.93
2018-12-22T22:13:01.644Z,9.60
2018-12-22T22:15:29.164Z,8.53
2018-12-22T22:17:56.782Z,8.80
2018-12-22T22:20:24.446Z,11.40
2018-12-22T22:22:52.590Z,12.60
2018-12-22T22:25:20.379Z,9.23
2018-12-22T22:27:47.887Z,5.97
2018-12-22T22:30:15.466Z,10.00
2018-12-22T22:32:42.987Z,7.70
2018-12-22T22:35:10.574Z,7.23
2018-12-22T22:37:38.194Z,6.97
2018-12-22T22:40:05.860Z,6.43
2018-12-22T22:42:33.369Z,8.50
2018-12-22T22:45:00.878Z,10.37
2018-12-22T22:47:28.510Z,13.07
2018-12-22T22:49:56.101Z,11.20
2018-12-22T22:52:24.234Z,9.93
2018-12-22T22:54:51.769Z,10.33
2018-12-22T22:57:19.348Z,12.40
2018-12-22T22:59:46.889Z,7.77
2018-12-22T23:02:14.465Z,11.77
2018-12-22T23:04:42.050Z,9.27
2018-12-22T23:07:09.642Z,6.97
2018-12-22T23:09:37.215Z,9.70
2018-12-22T23:12:04.737Z,7.83
2018-12-22T23:14:32.298Z,8.07
2018-12-22T23:16:59.891Z,9.73
2018-12-22T23:19:27.392Z,14.87
2018-12-22T23:21:54.948Z,8.37
2018-12-22T23:24:25.084Z,10.87
2018-12-22T23:26:52.647Z,6.77
2018-12-22T23:29:20.231Z,9.90
2018-12-22T23:31:47.749Z,8.07
2018-12-22T23:34:15.305Z,8.07
2018-12-22T23:36:42.822Z,10.00
2018-12-22T23:39:10.334Z,9.47
2018-12-22T23:41:37.887Z,7.73
2018-12-22T23:44:05.453Z,5.23
2018-12-22T23:46:33.133Z,11.03
2018-12-22T23:49:00.665Z,6.70
2018-12-22T23:51:28.216Z,5.97
2018-12-22T23:53:55.738Z,7.53
2018-12-22T23:56:23.378Z,10.43
2018-12-22T23:58:51.323Z,8.23
